Time;durP1;ratioP1;P1;durP2;ratioP2;P2;SDS_P1;SDS_P2;PMS_P1;PMS_P2;Temp;Humidity;BMP_temperature;BMP_pressure;BME280_temperature;BME280_humidity;BME280_pressure;Samples;Min_cycle;Max_cycle;Signal;HPM_P1;HPM_P2
2023/11/29 00:02:12;;;;;;;;;;;2.60;99.90;;;;;;5074029;28;20336;-75
2023/11/29 00:04:37;;;;;;;;;;;2.60;99.90;;;;;;5073913;28;19961;-76
2023/11/29 00:07:03;;;;;;;;;;;2.60;99.90;;;;;;5073249;28;19908;-76
2023/11/29 00:09:28;;;;;;;;;;;2.50;99.90;;;;;;5072163;28;19967;-76
2023/11/29 00:11:54;;;;;;;;;;;2.50;99.90;;;;;;5073341;28;20132;-76
2023/11/29 00:14:19;;;;;;;;;;;2.40;99.90;;;;;;5072310;28;19952;-76
2023/11/29 00:16:45;;;;;;;;;;;2.40;99.90;;;;;;5071961;28;20027;-77
2023/11/29 00:19:10;;;;;;;;;;;2.30;99.90;;;;;;5072916;28;19904;-76
2023/11/29 00:21:43;;;;;;;;;;;2.30;99.90;;;;;;5073137;28;19915;-75
2023/11/29 00:24:09;;;;;;;;;;;2.20;99.90;;;;;;5072300;28;20533;-77
2023/11/29 00:26:34;;;;;;;;;;;2.20;99.90;;;;;;5072152;28;20113;-76
2023/11/29 00:29:00;;;;;;;;;;;2.10;99.90;;;;;;5073027;28;19916;-76
2023/11/29 00:31:25;;;;;;;;;;;2.10;99.90;;;;;;5071476;28;19916;-76
2023/11/29 00:33:51;;;;;;;;;;;2.00;99.90;;;;;;5073547;28;19916;-76
2023/11/29 00:36:17;;;;;;;;;;;1.90;99.90;;;;;;5072615;28;19908;-76
2023/11/29 00:38:43;;;;;;;;;;;1.90;99.90;;;;;;5071646;28;20096;-76
2023/11/29 00:41:08;;;;;;;;;;;1.90;99.90;;;;;;5071851;28;20526;-76
2023/11/29 00:43:35;;;;;;;;;;;1.90;99.90;;;;;;5073692;28;19924;-78
2023/11/29 00:46:04;;;;;;;;;;;1.90;99.90;;;;;;5072038;28;19915;-77
2023/11/29 00:48:30;;;;;;;;;;;1.90;99.90;;;;;;5073407;28;20376;-76
2023/11/29 00:50:56;;;;;;;;;;;2.00;99.90;;;;;;5072109;28;19954;-76
2023/11/29 00:53:22;;;;;;;;;;;1.90;99.90;;;;;;5072055;28;19954;-76
2023/11/29 00:55:47;;;;;;;;;;;1.80;99.90;;;;;;5072372;28;19912;-76
2023/11/29 00:58:13;;;;;;;;;;;1.80;99.90;;;;;;5071359;28;19908;-77
2023/11/29 01:00:38;;;;;;;;;;;1.80;99.90;;;;;;5072368;28;19905;-76
2023/11/29 01:03:04;;;;;;;;;;;1.70;99.90;;;;;;5073128;28;19947;-77
2023/11/29 01:05:30;;;;;;;;;;;1.80;99.90;;;;;;5072460;28;20003;-77
2023/11/29 01:07:56;;;;;;;;;;;1.70;99.90;;;;;;5073356;28;19916;-77
2023/11/29 01:10:21;;;;;;;;;;;1.70;99.90;;;;;;5073851;28;19948;-76
2023/11/29 01:12:47;;;;;;;;;;;1.70;99.90;;;;;;5073094;28;19970;-76
2023/11/29 01:15:12;;;;;;;;;;;1.60;99.90;;;;;;5072499;28;19939;-77
2023/11/29 01:17:38;;;;;;;;;;;1.60;99.90;;;;;;5072232;28;19931;-77
2023/11/29 01:20:04;;;;;;;;;;;1.70;99.90;;;;;;5073604;28;19915;-76
2023/11/29 01:22:29;;;;;;;;;;;1.60;99.90;;;;;;5071821;28;19908;-76
2023/11/29 01:24:55;;;;;;;;;;;1.60;99.90;;;;;;5073645;28;19915;-77
2023/11/29 01:27:20;;;;;;;;;;;1.70;99.90;;;;;;5073599;28;19919;-76
2023/11/29 01:29:46;;;;;;;;;;;1.60;99.90;;;;;;5074149;28;19908;-77
2023/11/29 01:32:11;;;;;;;;;;;1.70;99.90;;;;;;5073607;28;20312;-76
2023/11/29 01:34:40;;;;;;;;;;;1.60;99.90;;;;;;5073545;28;19908;-76
2023/11/29 01:37:05;;;;;;;;;;;1.70;99.90;;;;;;5073276;28;19908;-77
2023/11/29 01:39:31;;;;;;;;;;;1.60;99.90;;;;;;5071903;28;20355;-77
2023/11/29 01:41:56;;;;;;;;;;;1.60;99.90;;;;;;5072066;28;19909;-76
2023/11/29 01:44:22;;;;;;;;;;;1.60;99.90;;;;;;5073370;28;19923;-77
2023/11/29 01:46:47;;;;;;;;;;;1.60;99.90;;;;;;5072136;28;20347;-77
2023/11/29 01:49:14;;;;;;;;;;;1.60;99.90;;;;;;5072209;28;19935;-76
2023/11/29 01:51:39;;;;;;;;;;;1.50;99.90;;;;;;5071373;28;19912;-76
2023/11/29 01:54:05;;;;;;;;;;;1.50;99.90;;;;;;5073801;28;20007;-77
2023/11/29 01:56:31;;;;;;;;;;;1.50;99.90;;;;;;5072750;28;19905;-77
2023/11/29 01:58:56;;;;;;;;;;;1.50;99.90;;;;;;5073506;28;19908;-78
2023/11/29 02:01:22;;;;;;;;;;;1.40;99.90;;;;;;5073207;28;20128;-77
2023/11/29 02:03:48;;;;;;;;;;;1.40;99.90;;;;;;5071178;28;19908;-77
2023/11/29 02:06:13;;;;;;;;;;;1.40;99.90;;;;;;5070747;28;20382;-76
2023/11/29 02:08:39;;;;;;;;;;;1.40;99.90;;;;;;5070632;28;20448;-76
2023/11/29 02:11:04;;;;;;;;;;;1.40;99.90;;;;;;5070268;28;19923;-76
2023/11/29 02:13:30;;;;;;;;;;;1.40;99.90;;;;;;5070612;28;19908;-77
2023/11/29 02:15:56;;;;;;;;;;;1.40;99.90;;;;;;5072212;28;19947;-76
2023/11/29 02:18:21;;;;;;;;;;;1.50;99.90;;;;;;5070853;28;19951;-76
2023/11/29 02:20:46;;;;;;;;;;;1.60;99.90;;;;;;5070976;28;19908;-77
2023/11/29 02:23:34;;;;;;;;;;;1.60;99.90;;;;;;5072197;28;19915;-76
2023/11/29 02:25:59;;;;;;;;;;;1.70;99.90;;;;;;5072458;28;19912;-76
2023/11/29 02:28:25;;;;;;;;;;;1.70;99.90;;;;;;5072303;28;20023;-77
2023/11/29 02:30:50;;;;;;;;;;;1.70;99.90;;;;;;5071155;28;19953;-77
2023/11/29 02:33:16;;;;;;;;;;;1.80;99.90;;;;;;5072044;28;19951;-77
2023/11/29 02:35:41;;;;;;;;;;;1.90;99.90;;;;;;5070785;28;19911;-76
2023/11/29 02:38:09;;;;;;;;;;;1.90;99.90;;;;;;5071837;28;20361;-76
2023/11/29 02:40:34;;;;;;;;;;;1.90;99.90;;;;;;5071864;28;19904;-76
2023/11/29 02:43:00;;;;;;;;;;;1.90;99.90;;;;;;5070645;28;19927;-77
2023/11/29 02:45:25;;;;;;;;;;;1.90;99.90;;;;;;5072102;28;20284;-77
2023/11/29 02:47:51;;;;;;;;;;;1.90;99.90;;;;;;5071732;28;19962;-77
2023/11/29 02:50:17;;;;;;;;;;;1.90;99.90;;;;;;5070394;28;19904;-76
2023/11/29 02:52:42;;;;;;;;;;;1.90;99.90;;;;;;5071216;28;19908;-77
2023/11/29 02:55:08;;;;;;;;;;;1.90;99.90;;;;;;5072079;28;19908;-77
2023/11/29 02:57:33;;;;;;;;;;;2.00;99.90;;;;;;5070455;28;20321;-76
2023/11/29 02:59:59;;;;;;;;;;;2.00;99.90;;;;;;5072145;28;19911;-77
2023/11/29 03:02:25;;;;;;;;;;;2.00;99.90;;;;;;5072441;28;20403;-76
2023/11/29 03:04:50;;;;;;;;;;;2.00;99.90;;;;;;5070808;28;20285;-77
2023/11/29 03:07:16;;;;;;;;;;;1.90;99.90;;;;;;5070048;28;19998;-75
2023/11/29 03:09:41;;;;;;;;;;;1.90;99.90;;;;;;5072050;28;19920;-77
2023/11/29 03:12:08;;;;;;;;;;;1.90;99.90;;;;;;5071913;28;19905;-77
2023/11/29 03:14:33;;;;;;;;;;;1.90;99.90;;;;;;5072876;28;19916;-76
2023/11/29 03:16:59;;;;;;;;;;;2.00;99.90;;;;;;5072560;28;19904;-77
2023/11/29 03:19:24;;;;;;;;;;;2.00;99.90;;;;;;5070900;28;19955;-77
2023/11/29 03:21:50;;;;;;;;;;;2.10;99.90;;;;;;5075320;28;19998;-76
2023/11/29 03:24:15;;;;;;;;;;;2.00;99.90;;;;;;5076520;28;19912;-76
2023/11/29 03:26:41;;;;;;;;;;;2.00;99.90;;;;;;5074435;28;19923;-77
2023/11/29 03:29:07;;;;;;;;;;;2.10;99.90;;;;;;5074599;28;19917;-77
2023/11/29 03:31:32;;;;;;;;;;;2.00;99.90;;;;;;5073809;28;19911;-77
2023/11/29 03:33:58;;;;;;;;;;;2.10;99.90;;;;;;5073657;28;20272;-77
2023/11/29 03:36:23;;;;;;;;;;;2.10;99.90;;;;;;5075081;28;19909;-77
2023/11/29 03:38:49;;;;;;;;;;;2.10;99.90;;;;;;5074034;28;19971;-77
2023/11/29 03:41:14;;;;;;;;;;;2.20;99.90;;;;;;5075092;28;19913;-76
2023/11/29 03:43:40;;;;;;;;;;;2.20;99.90;;;;;;5075626;28;19920;-77
2023/11/29 03:46:05;;;;;;;;;;;2.30;99.90;;;;;;5075076;28;19905;-76
2023/11/29 03:48:31;;;;;;;;;;;2.10;99.90;;;;;;5075151;28;19939;-76
2023/11/29 03:50:57;;;;;;;;;;;2.10;99.90;;;;;;5073503;28;19904;-76
2023/11/29 03:53:22;;;;;;;;;;;2.10;99.90;;;;;;5073371;28;19908;-77
2023/11/29 03:55:48;;;;;;;;;;;2.10;99.90;;;;;;5075063;28;20292;-78
2023/11/29 03:58:13;;;;;;;;;;;2.30;99.90;;;;;;5073998;28;20254;-76
2023/11/29 04:00:39;;;;;;;;;;;2.30;99.90;;;;;;5074937;28;19904;-76
2023/11/29 04:03:04;;;;;;;;;;;2.50;99.90;;;;;;5074620;28;19913;-76
2023/11/29 04:05:30;;;;;;;;;;;2.50;99.90;;;;;;5075198;28;20006;-76
2023/11/29 04:07:55;;;;;;;;;;;2.50;99.90;;;;;;5073818;28;19920;-76
2023/11/29 04:10:21;;;;;;;;;;;2.40;99.90;;;;;;5076043;28;19915;-78
2023/11/29 04:12:46;;;;;;;;;;;2.40;99.90;;;;;;5076370;28;19964;-77
2023/11/29 04:15:12;;;;;;;;;;;2.40;99.90;;;;;;5073566;28;19908;-77
2023/11/29 04:17:37;;;;;;;;;;;2.40;99.90;;;;;;5072095;28;20339;-76
2023/11/29 04:20:04;;;;;;;;;;;2.50;99.90;;;;;;5073151;28;20305;-76
2023/11/29 04:22:29;;;;;;;;;;;2.60;99.90;;;;;;5071777;28;19908;-76
2023/11/29 04:24:55;;;;;;;;;;;2.60;99.90;;;;;;5072051;28;20277;-77
2023/11/29 04:27:20;;;;;;;;;;;2.80;99.90;;;;;;5073220;28;19908;-77
2023/11/29 04:29:46;;;;;;;;;;;2.80;99.90;;;;;;5072678;28;19923;-76
2023/11/29 04:32:11;;;;;;;;;;;2.70;99.90;;;;;;5073223;28;20292;-76
2023/11/29 04:34:37;;;;;;;;;;;2.60;99.90;;;;;;5073372;28;19916;-76
2023/11/29 04:37:02;;;;;;;;;;;2.60;99.90;;;;;;5071805;28;19904;-77
2023/11/29 04:39:28;;;;;;;;;;;2.50;99.90;;;;;;5071752;28;20276;-76
2023/11/29 04:41:54;;;;;;;;;;;2.60;99.90;;;;;;5071352;28;19951;-76
2023/11/29 04:44:19;;;;;;;;;;;2.60;99.90;;;;;;5072863;28;19916;-76
2023/11/29 04:46:45;;;;;;;;;;;2.60;99.90;;;;;;5072153;28;19991;-77
2023/11/29 04:49:10;;;;;;;;;;;2.60;99.90;;;;;;5073450;28;20323;-76
2023/11/29 04:51:38;;;;;;;;;;;2.60;99.90;;;;;;5072129;28;19904;-77
2023/11/29 04:54:03;;;;;;;;;;;2.90;99.90;;;;;;5071504;28;19908;-76
2023/11/29 04:56:29;;;;;;;;;;;2.70;99.90;;;;;;5073516;28;19909;-76
2023/11/29 04:58:54;;;;;;;;;;;2.50;99.90;;;;;;5071103;28;20373;-76
2023/11/29 05:01:20;;;;;;;;;;;2.40;99.90;;;;;;5073458;28;19924;-77
2023/11/29 05:03:45;;;;;;;;;;;2.30;99.90;;;;;;5073580;28;19915;-77
2023/11/29 05:06:12;;;;;;;;;;;2.30;99.90;;;;;;5073474;28;19911;-76
2023/11/29 05:08:38;;;;;;;;;;;2.30;99.90;;;;;;5072171;28;19962;-77
2023/11/29 05:11:04;;;;;;;;;;;2.30;99.90;;;;;;5072637;28;20003;-77
2023/11/29 05:13:30;;;;;;;;;;;2.30;99.90;;;;;;5073335;28;20377;-77
2023/11/29 05:15:55;;;;;;;;;;;2.40;99.90;;;;;;5071763;28;19904;-77
2023/11/29 05:18:21;;;;;;;;;;;2.50;99.90;;;;;;5071852;28;19912;-77
2023/11/29 05:20:46;;;;;;;;;;;2.30;99.90;;;;;;5072098;28;20448;-77
2023/11/29 05:23:12;;;;;;;;;;;2.40;99.90;;;;;;5073427;28;20335;-77
2023/11/29 05:25:37;;;;;;;;;;;2.40;99.90;;;;;;5072201;28;19935;-76
2023/11/29 05:28:03;;;;;;;;;;;2.30;99.90;;;;;;5073360;28;19916;-77
2023/11/29 05:30:28;;;;;;;;;;;2.40;99.90;;;;;;5072307;28;19956;-77
2023/11/29 05:32:54;;;;;;;;;;;2.40;99.90;;;;;;5071991;28;19919;-77
2023/11/29 05:35:19;;;;;;;;;;;2.40;99.90;;;;;;5073286;28;19908;-76
2023/11/29 05:37:45;;;;;;;;;;;2.20;99.90;;;;;;5073272;28;20257;-76
2023/11/29 05:40:10;;;;;;;;;;;2.10;99.90;;;;;;5072994;28;20292;-76
2023/11/29 05:42:36;;;;;;;;;;;2.10;99.90;;;;;;5070964;28;19919;-77
2023/11/29 05:45:03;;;;;;;;;;;2.10;99.90;;;;;;5071938;28;20361;-76
2023/11/29 05:47:30;;;;;;;;;;;2.10;99.90;;;;;;5073055;28;19919;-76
2023/11/29 05:49:55;;;;;;;;;;;2.10;99.90;;;;;;5071971;28;19991;-77
2023/11/29 05:52:20;;;;;;;;;;;2.10;99.90;;;;;;5070757;28;19988;-77
2023/11/29 05:54:46;;;;;;;;;;;2.20;99.90;;;;;;5071461;28;19908;-76
2023/11/29 05:57:12;;;;;;;;;;;2.00;99.90;;;;;;5072134;28;19908;-76
2023/11/29 05:59:38;;;;;;;;;;;2.00;99.90;;;;;;5071459;28;20018;-76
2023/11/29 06:02:05;;;;;;;;;;;1.90;99.90;;;;;;5073481;28;19910;-77
2023/11/29 06:04:33;;;;;;;;;;;1.90;99.90;;;;;;5072266;28;19904;-76
2023/11/29 06:06:59;;;;;;;;;;;1.90;99.90;;;;;;5070977;28;19954;-75
2023/11/29 06:09:31;;;;;;;;;;;2.00;99.90;;;;;;5071510;28;19920;-75
2023/11/29 06:11:57;;;;;;;;;;;2.10;99.90;;;;;;5073526;28;20373;-76
2023/11/29 06:14:23;;;;;;;;;;;2.10;99.90;;;;;;5072627;28;19915;-77
2023/11/29 06:16:48;;;;;;;;;;;2.10;99.90;;;;;;5072999;28;19912;-77
2023/11/29 06:19:14;;;;;;;;;;;2.10;99.90;;;;;;5072712;28;19954;-77
2023/11/29 06:21:39;;;;;;;;;;;2.10;99.90;;;;;;5072662;28;19904;-78
2023/11/29 06:24:05;;;;;;;;;;;2.10;99.90;;;;;;5074837;28;20365;-77
2023/11/29 06:26:32;;;;;;;;;;;2.10;99.90;;;;;;5073021;28;20413;-77
2023/11/29 06:28:58;;;;;;;;;;;2.00;99.90;;;;;;5070346;28;19912;-76
2023/11/29 06:31:24;;;;;;;;;;;1.90;99.90;;;;;;5071872;28;19979;-76
2023/11/29 06:33:49;;;;;;;;;;;1.90;99.90;;;;;;5073387;28;19905;-77
2023/11/29 06:36:15;;;;;;;;;;;2.00;99.90;;;;;;5070657;28;19920;-75
2023/11/29 06:38:42;;;;;;;;;;;1.90;99.90;;;;;;5069869;28;19908;-75
2023/11/29 06:41:08;;;;;;;;;;;1.90;99.90;;;;;;5069922;28;19908;-75
2023/11/29 06:43:34;;;;;;;;;;;2.00;99.90;;;;;;5069722;28;19924;-76
2023/11/29 06:46:05;;;;;;;;;;;1.90;99.90;;;;;;5068785;28;19908;-75
2023/11/29 06:48:31;;;;;;;;;;;1.90;99.90;;;;;;5068900;28;20011;-75
2023/11/29 06:51:00;;;;;;;;;;;1.90;99.90;;;;;;5068859;28;19960;-75
2023/11/29 06:53:28;;;;;;;;;;;1.80;99.90;;;;;;5070311;28;20383;-77
2023/11/29 06:55:55;;;;;;;;;;;1.80;99.90;;;;;;5071221;28;19913;-76
2023/11/29 06:58:20;;;;;;;;;;;1.90;99.90;;;;;;5073534;28;19909;-76
2023/11/29 07:00:46;;;;;;;;;;;1.90;99.90;;;;;;5074324;28;20283;-76
2023/11/29 07:03:12;;;;;;;;;;;1.90;99.90;;;;;;5074733;28;19912;-77
2023/11/29 07:05:39;;;;;;;;;;;1.90;99.90;;;;;;5073924;28;19937;-76
2023/11/29 07:08:05;;;;;;;;;;;1.90;99.90;;;;;;5075362;28;19922;-76
2023/11/29 07:10:32;;;;;;;;;;;1.90;99.90;;;;;;5074196;28;19916;-77
2023/11/29 07:12:59;;;;;;;;;;;1.90;99.90;;;;;;5074512;28;19904;-76
2023/11/29 07:15:25;;;;;;;;;;;2.00;99.90;;;;;;5073417;28;20002;-76
2023/11/29 07:17:51;;;;;;;;;;;2.00;99.90;;;;;;5073569;28;20356;-76
2023/11/29 07:20:17;;;;;;;;;;;2.00;99.90;;;;;;5074618;28;20284;-76
2023/11/29 07:22:43;;;;;;;;;;;1.90;99.90;;;;;;5074036;28;19908;-77
2023/11/29 07:25:08;;;;;;;;;;;1.90;99.90;;;;;;5073714;28;20356;-77
2023/11/29 07:27:34;;;;;;;;;;;1.90;99.90;;;;;;5073536;28;19911;-75
2023/11/29 07:30:00;;;;;;;;;;;2.00;99.90;;;;;;5073525;28;19908;-77
2023/11/29 07:32:25;;;;;;;;;;;1.90;99.90;;;;;;5075486;28;19961;-77
2023/11/29 07:34:51;;;;;;;;;;;2.00;99.90;;;;;;5074185;28;20403;-76
2023/11/29 07:37:19;;;;;;;;;;;1.90;99.90;;;;;;5073202;28;20333;-76
2023/11/29 07:39:44;;;;;;;;;;;1.90;99.90;;;;;;5073306;28;20265;-77
2023/11/29 07:42:10;;;;;;;;;;;1.90;99.90;;;;;;5074753;28;19911;-76
2023/11/29 07:44:35;;;;;;;;;;;2.00;99.90;;;;;;5073263;28;19921;-76
2023/11/29 07:47:03;;;;;;;;;;;1.90;99.90;;;;;;5074801;28;19912;-77
2023/11/29 07:49:29;;;;;;;;;;;1.90;99.90;;;;;;5073952;28;20388;-77
2023/11/29 07:51:55;;;;;;;;;;;1.80;99.90;;;;;;5074823;28;19915;-77
2023/11/29 07:54:20;;;;;;;;;;;1.80;99.90;;;;;;5075589;28;19908;-77
2023/11/29 07:56:46;;;;;;;;;;;1.90;99.90;;;;;;5075003;28;19961;-77
2023/11/29 07:59:12;;;;;;;;;;;1.80;99.90;;;;;;5072883;28;20407;-77
2023/11/29 08:01:38;;;;;;;;;;;1.90;99.90;;;;;;5075269;28;19912;-77
2023/11/29 08:04:04;;;;;;;;;;;1.90;99.90;;;;;;5073488;28;20294;-76
2023/11/29 08:06:30;;;;;;;;;;;1.90;99.90;;;;;;5072929;28;19950;-77
2023/11/29 08:08:56;;;;;;;;;;;2.00;99.90;;;;;;5072070;28;19917;-75
2023/11/29 08:11:21;;;;;;;;;;;1.90;99.90;;;;;;5072534;28;19908;-74
2023/11/29 08:13:47;;;;;;;;;;;2.00;99.90;;;;;;5074779;28;19950;-76
2023/11/29 08:16:12;;;;;;;;;;;2.00;99.90;;;;;;5073280;28;20424;-76
2023/11/29 08:18:38;;;;;;;;;;;1.90;99.90;;;;;;5072718;28;19911;-77
2023/11/29 08:21:03;;;;;;;;;;;1.90;99.90;;;;;;5073590;28;19904;-76
2023/11/29 08:23:29;;;;;;;;;;;1.90;99.90;;;;;;5074327;28;20420;-76
2023/11/29 08:25:54;;;;;;;;;;;1.90;99.90;;;;;;5073117;28;20384;-76
2023/11/29 08:28:20;;;;;;;;;;;1.90;99.90;;;;;;5074457;28;19913;-77
2023/11/29 08:30:46;;;;;;;;;;;1.90;99.90;;;;;;5072768;28;20365;-77
2023/11/29 08:33:11;;;;;;;;;;;1.90;99.90;;;;;;5075350;28;19905;-76
2023/11/29 08:35:37;;;;;;;;;;;1.90;99.90;;;;;;5074612;28;19904;-76
2023/11/29 08:38:02;;;;;;;;;;;1.90;99.90;;;;;;5072977;28;19954;-76
2023/11/29 08:40:28;;;;;;;;;;;1.90;99.90;;;;;;5072041;28;20288;-76
2023/11/29 08:42:53;;;;;;;;;;;2.00;99.90;;;;;;5071267;28;19913;-76
2023/11/29 08:45:19;;;;;;;;;;;2.00;99.90;;;;;;5072188;28;19908;-77
2023/11/29 08:47:45;;;;;;;;;;;1.90;99.90;;;;;;5071850;28;19994;-76
2023/11/29 08:50:11;;;;;;;;;;;1.90;99.90;;;;;;5073205;28;19950;-76
2023/11/29 08:52:36;;;;;;;;;;;2.00;99.90;;;;;;5071907;28;19904;-76
2023/11/29 08:55:04;;;;;;;;;;;2.00;99.90;;;;;;5071638;28;19931;-77
2023/11/29 08:57:30;;;;;;;;;;;2.00;99.90;;;;;;5073276;28;20022;-76
2023/11/29 08:59:57;;;;;;;;;;;2.20;99.90;;;;;;5071950;28;20440;-77
2023/11/29 09:02:23;;;;;;;;;;;2.20;99.90;;;;;;5071418;28;20281;-76
2023/11/29 09:04:49;;;;;;;;;;;2.10;99.90;;;;;;5072594;28;20027;-76
2023/11/29 09:07:15;;;;;;;;;;;2.20;99.90;;;;;;5071980;28;19998;-75
2023/11/29 09:09:43;;;;;;;;;;;2.30;99.90;;;;;;5072378;28;20403;-76
2023/11/29 09:12:12;;;;;;;;;;;2.30;99.90;;;;;;5073326;28;19912;-77
2023/11/29 09:14:38;;;;;;;;;;;2.30;99.90;;;;;;5071794;28;19904;-75
2023/11/29 09:17:04;;;;;;;;;;;2.30;99.90;;;;;;5071384;28;19912;-76
2023/11/29 09:19:31;;;;;;;;;;;2.40;99.90;;;;;;5070685;28;20113;-75
2023/11/29 09:21:58;;;;;;;;;;;2.40;99.90;;;;;;5071468;28;19904;-76
2023/11/29 09:24:24;;;;;;;;;;;2.30;99.90;;;;;;5070863;28;19914;-76
2023/11/29 09:26:49;;;;;;;;;;;2.30;99.90;;;;;;5071149;28;19910;-76
2023/11/29 09:29:15;;;;;;;;;;;2.20;99.90;;;;;;5072605;28;19916;-76
2023/11/29 09:31:41;;;;;;;;;;;2.20;99.90;;;;;;5071464;28;20000;-76
2023/11/29 09:34:07;;;;;;;;;;;2.20;99.90;;;;;;5073298;28;19908;-76
2023/11/29 09:36:33;;;;;;;;;;;2.20;99.90;;;;;;5072554;28;19915;-76
2023/11/29 09:38:58;;;;;;;;;;;2.20;99.90;;;;;;5072429;28;19931;-75
2023/11/29 09:41:24;;;;;;;;;;;2.10;99.90;;;;;;5073375;28;19909;-75
2023/11/29 09:43:50;;;;;;;;;;;2.20;99.90;;;;;;5071848;28;19967;-76
2023/11/29 09:46:16;;;;;;;;;;;2.10;99.90;;;;;;5073025;28;19959;-77
2023/11/29 09:48:42;;;;;;;;;;;2.20;99.90;;;;;;5071006;28;19923;-76
2023/11/29 09:51:07;;;;;;;;;;;2.10;99.90;;;;;;5073170;28;20010;-76
2023/11/29 09:53:33;;;;;;;;;;;2.10;99.90;;;;;;5073662;28;19908;-76
2023/11/29 09:55:58;;;;;;;;;;;2.00;99.90;;;;;;5073158;28;19942;-77
2023/11/29 09:58:24;;;;;;;;;;;2.10;99.90;;;;;;5072294;28;19908;-76
2023/11/29 10:00:49;;;;;;;;;;;2.10;99.90;;;;;;5070570;28;19904;-76
2023/11/29 10:03:16;;;;;;;;;;;2.10;99.90;;;;;;5072141;28;19947;-77
2023/11/29 10:05:45;;;;;;;;;;;2.10;99.90;;;;;;5072065;28;20396;-76
2023/11/29 10:08:19;;;;;;;;;;;2.10;99.90;;;;;;5072179;28;19912;-76
2023/11/29 10:10:48;;;;;;;;;;;2.10;99.90;;;;;;5070411;28;19905;-77
2023/11/29 10:13:17;;;;;;;;;;;2.00;99.90;;;;;;5070276;28;19908;-76
2023/11/29 10:15:48;;;;;;;;;;;2.00;99.90;;;;;;5072001;28;19912;-76
2023/11/29 10:18:14;;;;;;;;;;;2.10;99.90;;;;;;5072125;28;19911;-76
2023/11/29 10:20:44;;;;;;;;;;;2.00;99.90;;;;;;5070584;28;19961;-76
2023/11/29 10:23:11;;;;;;;;;;;2.10;99.90;;;;;;5070257;28;19938;-76
2023/11/29 10:25:37;;;;;;;;;;;2.10;99.90;;;;;;5070578;28;19943;-76
2023/11/29 10:28:03;;;;;;;;;;;2.10;99.90;;;;;;5071459;28;20050;-76
2023/11/29 10:30:28;;;;;;;;;;;2.10;99.90;;;;;;5070480;28;19909;-76
2023/11/29 10:32:54;;;;;;;;;;;2.20;99.90;;;;;;5072098;28;19931;-76
2023/11/29 10:35:22;;;;;;;;;;;2.10;99.90;;;;;;5071117;28;20381;-76
2023/11/29 10:37:55;;;;;;;;;;;2.10;99.90;;;;;;5070652;28;19912;-76
2023/11/29 10:40:21;;;;;;;;;;;2.10;99.90;;;;;;5072119;28;19911;-76
2023/11/29 10:42:49;;;;;;;;;;;2.20;99.90;;;;;;5071454;28;19978;-77
2023/11/29 10:45:20;;;;;;;;;;;2.20;99.90;;;;;;5071426;28;19926;-76
2023/11/29 10:47:56;;;;;;;;;;;2.30;99.90;;;;;;5069349;28;20440;-76
2023/11/29 10:50:23;;;;;;;;;;;2.30;99.90;;;;;;5070750;28;19927;-76
2023/11/29 10:52:49;;;;;;;;;;;2.30;99.90;;;;;;5071966;28;19904;-75
2023/11/29 10:55:14;;;;;;;;;;;2.40;99.90;;;;;;5069372;28;20369;-76
2023/11/29 10:57:43;;;;;;;;;;;2.40;99.90;;;;;;5070578;28;19931;-75
2023/11/29 11:00:15;;;;;;;;;;;2.30;99.90;;;;;;5070049;28;19910;-77
2023/11/29 11:02:47;;;;;;;;;;;2.30;99.90;;;;;;5071057;28;19908;-76
2023/11/29 11:05:15;;;;;;;;;;;2.30;99.90;;;;;;5069646;28;19904;-76
2023/11/29 11:07:41;;;;;;;;;;;2.40;99.90;;;;;;5071021;28;19958;-76
2023/11/29 11:10:27;;;;;;;;;;;2.40;99.90;;;;;;5071871;28;20360;-76
2023/11/29 11:12:53;;;;;;;;;;;2.40;99.90;;;;;;5069985;28;19909;-75
2023/11/29 11:15:28;;;;;;;;;;;2.60;99.90;;;;;;5072042;28;19961;-77
2023/11/29 11:18:03;;;;;;;;;;;2.50;99.90;;;;;;5071398;28;19935;-76
2023/11/29 11:20:39;;;;;;;;;;;2.40;99.90;;;;;;5072059;28;19947;-76
2023/11/29 11:23:04;;;;;;;;;;;2.40;99.90;;;;;;5072689;28;19939;-76
2023/11/29 11:25:30;;;;;;;;;;;2.40;99.90;;;;;;5070673;28;19905;-76
2023/11/29 11:27:56;;;;;;;;;;;2.40;99.90;;;;;;5068472;28;19912;-77
2023/11/29 11:30:22;;;;;;;;;;;2.30;99.90;;;;;;5069656;28;19908;-76
2023/11/29 11:32:48;;;;;;;;;;;2.30;99.90;;;;;;5070493;28;19914;-77
2023/11/29 11:35:17;;;;;;;;;;;2.40;99.90;;;;;;5070790;28;19904;-76
2023/11/29 11:37:46;;;;;;;;;;;2.50;99.90;;;;;;5068958;28;19912;-76
2023/11/29 11:40:12;;;;;;;;;;;2.40;99.90;;;;;;5070959;28;19915;-76
2023/11/29 11:42:39;;;;;;;;;;;2.50;99.90;;;;;;5073383;28;19924;-76
2023/11/29 11:45:06;;;;;;;;;;;2.40;99.90;;;;;;5073785;28;20451;-76
2023/11/29 11:47:32;;;;;;;;;;;2.40;99.90;;;;;;5074896;28;20347;-77
2023/11/29 11:49:58;;;;;;;;;;;2.30;99.90;;;;;;5074339;28;19913;-75
2023/11/29 11:52:24;;;;;;;;;;;2.30;99.90;;;;;;5073537;28;19915;-76
2023/11/29 11:54:50;;;;;;;;;;;2.30;99.90;;;;;;5074609;28;20379;-76
2023/11/29 11:57:15;;;;;;;;;;;2.30;99.90;;;;;;5073723;28;19913;-77
2023/11/29 11:59:41;;;;;;;;;;;2.30;99.90;;;;;;5072765;28;19911;-75
2023/11/29 12:02:07;;;;;;;;;;;2.30;99.90;;;;;;5073305;28;19908;-76
2023/11/29 12:04:32;;;;;;;;;;;2.30;99.90;;;;;;5072988;28;20377;-75
2023/11/29 12:06:58;;;;;;;;;;;2.30;99.90;;;;;;5072446;28;20487;-76
2023/11/29 12:09:26;;;;;;;;;;;2.20;99.90;;;;;;5073586;28;20396;-75
2023/11/29 12:12:07;;;;;;;;;;;2.20;99.90;;;;;;5073547;28;19915;-75
2023/11/29 12:14:33;;;;;;;;;;;2.20;99.90;;;;;;5074114;28;19958;-76
2023/11/29 12:16:58;;;;;;;;;;;2.20;99.90;;;;;;5072958;28;19905;-76
2023/11/29 12:19:24;;;;;;;;;;;2.10;99.90;;;;;;5072384;28;19915;-75
2023/11/29 12:21:50;;;;;;;;;;;2.10;99.90;;;;;;5073570;28;20381;-75
2023/11/29 12:24:15;;;;;;;;;;;2.10;99.90;;;;;;5077081;28;20006;-76
2023/11/29 12:26:41;;;;;;;;;;;2.00;99.90;;;;;;5076892;28;19947;-75
2023/11/29 12:29:07;;;;;;;;;;;2.00;99.90;;;;;;5075508;28;19923;-75
2023/11/29 12:31:36;;;;;;;;;;;2.10;99.90;;;;;;5077441;28;19999;-77
2023/11/29 12:34:01;;;;;;;;;;;2.10;99.90;;;;;;5077287;28;19908;-76
2023/11/29 12:36:29;;;;;;;;;;;2.10;99.90;;;;;;5073586;28;20323;-76
2023/11/29 12:38:54;;;;;;;;;;;2.00;99.90;;;;;;5074505;28;20437;-75
2023/11/29 12:41:20;;;;;;;;;;;2.00;99.90;;;;;;5077727;28;19931;-76
2023/11/29 12:43:46;;;;;;;;;;;2.00;99.90;;;;;;5075040;28;19925;-75
2023/11/29 12:46:11;;;;;;;;;;;2.10;99.90;;;;;;5075682;28;19915;-75
2023/11/29 12:48:37;;;;;;;;;;;2.10;99.90;;;;;;5076051;28;19923;-75
2023/11/29 12:51:03;;;;;;;;;;;2.20;99.90;;;;;;5076808;28;19908;-75
2023/11/29 12:53:29;;;;;;;;;;;2.20;99.90;;;;;;5077650;28;19914;-75
2023/11/29 12:55:54;;;;;;;;;;;2.20;99.90;;;;;;5076758;28;19944;-75
2023/11/29 12:58:20;;;;;;;;;;;2.20;99.90;;;;;;5076565;28;19905;-76
2023/11/29 13:00:46;;;;;;;;;;;2.40;99.90;;;;;;5075250;28;19919;-74
2023/11/29 13:03:11;;;;;;;;;;;2.40;99.90;;;;;;5074437;28;19908;-74
2023/11/29 13:05:37;;;;;;;;;;;2.50;99.90;;;;;;5074927;28;19950;-74
2023/11/29 13:08:03;;;;;;;;;;;2.60;99.90;;;;;;5075180;28;19964;-76
2023/11/29 13:10:29;;;;;;;;;;;2.70;99.90;;;;;;5073051;28;19916;-75
2023/11/29 13:12:56;;;;;;;;;;;2.60;99.90;;;;;;5068480;28;19998;-75
2023/11/29 13:15:21;;;;;;;;;;;2.70;99.90;;;;;;5070202;28;19999;-76
2023/11/29 13:17:47;;;;;;;;;;;2.80;99.90;;;;;;5071518;28;19991;-76
2023/11/29 13:20:13;;;;;;;;;;;2.70;99.90;;;;;;5070003;28;20285;-75
2023/11/29 13:22:40;;;;;;;;;;;2.70;99.90;;;;;;5070347;28;19912;-75
2023/11/29 13:25:05;;;;;;;;;;;2.80;99.90;;;;;;5070770;28;19912;-74
2023/11/29 13:27:31;;;;;;;;;;;2.90;99.90;;;;;;5073946;28;20666;-75
2023/11/29 13:29:57;;;;;;;;;;;3.00;99.90;;;;;;5071687;28;19916;-75
2023/11/29 13:32:22;;;;;;;;;;;3.10;99.90;;;;;;5072629;28;19985;-75
2023/11/29 13:34:48;;;;;;;;;;;3.10;99.90;;;;;;5072839;28;19908;-75
2023/11/29 13:37:13;;;;;;;;;;;3.10;99.90;;;;;;5071713;28;19912;-76
2023/11/29 13:39:39;;;;;;;;;;;3.10;99.90;;;;;;5073250;28;19915;-75
2023/11/29 13:42:04;;;;;;;;;;;3.00;99.90;;;;;;5072135;28;20261;-75
2023/11/29 13:44:30;;;;;;;;;;;2.90;99.90;;;;;;5070280;28;19960;-75
2023/11/29 13:46:56;;;;;;;;;;;2.80;99.90;;;;;;5072048;28;19912;-75
2023/11/29 13:49:33;;;;;;;;;;;2.60;99.90;;;;;;5070251;28;19946;-76
2023/11/29 13:51:59;;;;;;;;;;;2.60;99.90;;;;;;5071782;28;19908;-77
2023/11/29 13:54:25;;;;;;;;;;;2.50;99.90;;;;;;5071936;28;19908;-75
2023/11/29 13:56:50;;;;;;;;;;;2.40;99.90;;;;;;5072698;28;19908;-77
2023/11/29 13:59:16;;;;;;;;;;;2.40;99.90;;;;;;5070711;28;20010;-76
2023/11/29 14:01:42;;;;;;;;;;;2.30;99.90;;;;;;5072371;28;19947;-76
2023/11/29 14:04:07;;;;;;;;;;;2.20;99.90;;;;;;5071145;28;20438;-76
2023/11/29 14:06:33;;;;;;;;;;;2.20;99.90;;;;;;5071618;28;20289;-76
2023/11/29 14:08:58;;;;;;;;;;;2.10;99.90;;;;;;5073298;28;20311;-77
2023/11/29 14:11:24;;;;;;;;;;;2.00;99.90;;;;;;5073270;28;19908;-78
2023/11/29 14:13:52;;;;;;;;;;;1.90;99.90;;;;;;5067831;28;19908;-76
2023/11/29 14:16:17;;;;;;;;;;;1.90;99.90;;;;;;5071566;28;19904;-75
2023/11/29 14:18:43;;;;;;;;;;;1.90;99.90;;;;;;5073703;28;19934;-75
2023/11/29 14:21:09;;;;;;;;;;;1.80;99.90;;;;;;5072837;28;19908;-77
2023/11/29 14:23:35;;;;;;;;;;;1.80;99.90;;;;;;5072716;28;19917;-76
2023/11/29 14:26:00;;;;;;;;;;;1.80;99.90;;;;;;5070266;28;19915;-76